sensor_id;sensor_type;location;lat;lon;timestamp;temperature;humidity
21592;DHT22;10958;50.892;3.992;2023-06-22T00:00:50;21.80;99.90
21592;DHT22;10958;50.892;3.992;2023-06-22T00:03:19;21.80;99.90
21592;DHT22;10958;50.892;3.992;2023-06-22T00:05:46;21.90;99.90
21592;DHT22;10958;50.892;3.992;2023-06-22T00:08:12;21.90;99.90
21592;DHT22;10958;50.892;3.992;2023-06-22T00:10:39;22.10;99.90
21592;DHT22;10958;50.892;3.992;2023-06-22T00:13:06;21.90;99.90
21592;DHT22;10958;50.892;3.992;2023-06-22T00:15:33;22.10;99.90
21592;DHT22;10958;50.892;3.992;2023-06-22T00:17:59;22.20;99.90
21592;DHT22;10958;50.892;3.992;2023-06-22T00:20:26;22.10;99.90
21592;DHT22;10958;50.892;3.992;2023-06-22T00:22:55;21.90;99.90
21592;DHT22;10958;50.892;3.992;2023-06-22T00:25:22;21.90;99.90
21592;DHT22;10958;50.892;3.992;2023-06-22T00:27:48;22.10;99.90
21592;DHT22;10958;50.892;3.992;2023-06-22T00:30:16;22.30;99.90
21592;DHT22;10958;50.892;3.992;2023-06-22T00:32:45;22.10;99.90
21592;DHT22;10958;50.892;3.992;2023-06-22T00:35:14;21.90;99.90
21592;DHT22;10958;50.892;3.992;2023-06-22T00:37:40;21.90;99.90
21592;DHT22;10958;50.892;3.992;2023-06-22T00:40:09;21.60;99.90
21592;DHT22;10958;50.892;3.992;2023-06-22T00:42:40;21.50;99.90
21592;DHT22;10958;50.892;3.992;2023-06-22T00:45:07;21.50;99.90
21592;DHT22;10958;50.892;3.992;2023-06-22T00:47:34;21.60;99.90
21592;DHT22;10958;50.892;3.992;2023-06-22T00:50:01;21.30;99.90
21592;DHT22;10958;50.892;3.992;2023-06-22T00:52:28;21.10;99.90
21592;DHT22;10958;50.892;3.992;2023-06-22T00:54:57;21.10;99.90
21592;DHT22;10958;50.892;3.992;2023-06-22T00:57:24;21.30;99.90
21592;DHT22;10958;50.892;3.992;2023-06-22T00:59:53;21.50;99.90
21592;DHT22;10958;50.892;3.992;2023-06-22T01:02:19;21.60;99.90
21592;DHT22;10958;50.892;3.992;2023-06-22T01:04:45;21.40;99.90
21592;DHT22;10958;50.892;3.992;2023-06-22T01:07:35;21.30;99.90
21592;DHT22;10958;50.892;3.992;2023-06-22T01:10:18;21.30;99.90
21592;DHT22;10958;50.892;3.992;2023-06-22T01:14:21;21.50;99.90
21592;DHT22;10958;50.892;3.992;2023-06-22T01:16:50;21.40;99.90
21592;DHT22;10958;50.892;3.992;2023-06-22T01:19:35;21.30;99.90
21592;DHT22;10958;50.892;3.992;2023-06-22T01:22:01;21.40;99.90
21592;DHT22;10958;50.892;3.992;2023-06-22T01:24:46;21.40;99.90
21592;DHT22;10958;50.892;3.992;2023-06-22T01:29:50;21.20;99.90
21592;DHT22;10958;50.892;3.992;2023-06-22T01:32:18;21.00;99.90
21592;DHT22;10958;50.892;3.992;2023-06-22T01:34:44;20.90;99.90
21592;DHT22;10958;50.892;3.992;2023-06-22T01:37:11;20.90;99.90
21592;DHT22;10958;50.892;3.992;2023-06-22T01:39:37;20.50;99.90
21592;DHT22;10958;50.892;3.992;2023-06-22T01:42:03;20.50;99.90
21592;DHT22;10958;50.892;3.992;2023-06-22T01:44:30;20.60;99.90
21592;DHT22;10958;50.892;3.992;2023-06-22T01:46:57;20.70;99.90
21592;DHT22;10958;50.892;3.992;2023-06-22T01:49:23;20.70;99.90
21592;DHT22;10958;50.892;3.992;2023-06-22T01:51:50;20.90;99.90
21592;DHT22;10958;50.892;3.992;2023-06-22T01:54:16;21.00;99.90
21592;DHT22;10958;50.892;3.992;2023-06-22T01:56:42;20.80;99.90
21592;DHT22;10958;50.892;3.992;2023-06-22T01:59:17;20.70;99.90
21592;DHT22;10958;50.892;3.992;2023-06-22T02:01:51;20.90;99.90
21592;DHT22;10958;50.892;3.992;2023-06-22T02:04:24;21.00;99.90
21592;DHT22;10958;50.892;3.992;2023-06-22T02:06:55;21.20;99.90
21592;DHT22;10958;50.892;3.992;2023-06-22T02:09:23;21.00;99.90
21592;DHT22;10958;50.892;3.992;2023-06-22T02:11:53;20.50;99.90
21592;DHT22;10958;50.892;3.992;2023-06-22T02:14:21;20.30;99.90
21592;DHT22;10958;50.892;3.992;2023-06-22T02:16:48;20.30;99.90
21592;DHT22;10958;50.892;3.992;2023-06-22T02:19:23;20.20;99.90
21592;DHT22;10958;50.892;3.992;2023-06-22T02:21:49;20.40;99.90
21592;DHT22;10958;50.892;3.992;2023-06-22T02:24:17;20.60;99.90
21592;DHT22;10958;50.892;3.992;2023-06-22T02:26:43;20.60;99.90
21592;DHT22;10958;50.892;3.992;2023-06-22T02:29:11;20.50;99.90
21592;DHT22;10958;50.892;3.992;2023-06-22T02:31:36;20.40;99.90
21592;DHT22;10958;50.892;3.992;2023-06-22T02:34:02;20.50;99.90
21592;DHT22;10958;50.892;3.992;2023-06-22T02:36:28;20.70;99.90
21592;DHT22;10958;50.892;3.992;2023-06-22T02:38:55;20.80;99.90
21592;DHT22;10958;50.892;3.992;2023-06-22T02:41:24;20.90;99.90
21592;DHT22;10958;50.892;3.992;2023-06-22T02:43:50;21.00;99.90
21592;DHT22;10958;50.892;3.992;2023-06-22T02:46:17;20.80;99.90
21592;DHT22;10958;50.892;3.992;2023-06-22T02:48:42;20.90;99.90
21592;DHT22;10958;50.892;3.992;2023-06-22T02:51:11;20.90;99.90
21592;DHT22;10958;50.892;3.992;2023-06-22T02:53:39;20.80;99.90
21592;DHT22;10958;50.892;3.992;2023-06-22T02:56:05;20.50;99.90
21592;DHT22;10958;50.892;3.992;2023-06-22T02:58:31;20.50;99.90
21592;DHT22;10958;50.892;3.992;2023-06-22T03:01:04;20.30;99.90
21592;DHT22;10958;50.892;3.992;2023-06-22T03:03:32;20.40;99.90
21592;DHT22;10958;50.892;3.992;2023-06-22T03:05:58;20.60;99.90
21592;DHT22;10958;50.892;3.992;2023-06-22T03:08:26;20.60;99.90
21592;DHT22;10958;50.892;3.992;2023-06-22T03:10:51;20.70;99.90
21592;DHT22;10958;50.892;3.992;2023-06-22T03:13:17;20.80;99.90
21592;DHT22;10958;50.892;3.992;2023-06-22T03:15:43;20.70;99.90
21592;DHT22;10958;50.892;3.992;2023-06-22T03:18:08;20.70;99.90
21592;DHT22;10958;50.892;3.992;2023-06-22T03:20:34;20.50;99.90
21592;DHT22;10958;50.892;3.992;2023-06-22T03:23:00;20.50;99.90
21592;DHT22;10958;50.892;3.992;2023-06-22T03:25:25;20.40;99.90
21592;DHT22;10958;50.892;3.992;2023-06-22T03:27:57;20.50;99.90
21592;DHT22;10958;50.892;3.992;2023-06-22T03:30:22;20.50;99.90
21592;DHT22;10958;50.892;3.992;2023-06-22T03:32:48;20.50;99.90
21592;DHT22;10958;50.892;3.992;2023-06-22T03:35:15;20.30;99.90
21592;DHT22;10958;50.892;3.992;2023-06-22T03:37:41;20.20;99.90
21592;DHT22;10958;50.892;3.992;2023-06-22T03:40:10;20.10;99.90
21592;DHT22;10958;50.892;3.992;2023-06-22T03:42:35;20.10;99.90
21592;DHT22;10958;50.892;3.992;2023-06-22T03:45:02;20.20;99.90
21592;DHT22;10958;50.892;3.992;2023-06-22T03:47:28;20.30;99.90
21592;DHT22;10958;50.892;3.992;2023-06-22T03:49:57;20.10;99.90
21592;DHT22;10958;50.892;3.992;2023-06-22T03:52:22;20.20;99.90
21592;DHT22;10958;50.892;3.992;2023-06-22T03:54:48;20.20;99.90
21592;DHT22;10958;50.892;3.992;2023-06-22T03:57:14;20.20;99.90
21592;DHT22;10958;50.892;3.992;2023-06-22T03:59:40;20.20;99.90
21592;DHT22;10958;50.892;3.992;2023-06-22T04:02:08;20.30;99.90
21592;DHT22;10958;50.892;3.992;2023-06-22T04:04:34;20.40;99.90
21592;DHT22;10958;50.892;3.992;2023-06-22T04:07:04;20.50;99.90
21592;DHT22;10958;50.892;3.992;2023-06-22T04:09:30;20.50;99.90
21592;DHT22;10958;50.892;3.992;2023-06-22T04:11:56;20.50;99.90
21592;DHT22;10958;50.892;3.992;2023-06-22T04:14:22;20.40;99.90
21592;DHT22;10958;50.892;3.992;2023-06-22T04:16:48;20.30;99.90
21592;DHT22;10958;50.892;3.992;2023-06-22T04:19:14;20.50;99.90
21592;DHT22;10958;50.892;3.992;2023-06-22T04:21:42;20.60;99.90
21592;DHT22;10958;50.892;3.992;2023-06-22T04:24:08;20.70;99.90
21592;DHT22;10958;50.892;3.992;2023-06-22T04:26:34;20.70;99.90
21592;DHT22;10958;50.892;3.992;2023-06-22T04:29:07;20.80;99.90
21592;DHT22;10958;50.892;3.992;2023-06-22T04:31:34;20.70;99.90
21592;DHT22;10958;50.892;3.992;2023-06-22T04:34:02;20.50;99.90
21592;DHT22;10958;50.892;3.992;2023-06-22T04:36:35;20.70;99.90
21592;DHT22;10958;50.892;3.992;2023-06-22T04:39:12;20.60;99.90
21592;DHT22;10958;50.892;3.992;2023-06-22T04:41:41;20.70;99.90
21592;DHT22;10958;50.892;3.992;2023-06-22T04:44:10;20.50;99.90
21592;DHT22;10958;50.892;3.992;2023-06-22T04:46:40;20.70;99.90
21592;DHT22;10958;50.892;3.992;2023-06-22T04:49:07;21.10;99.90
21592;DHT22;10958;50.892;3.992;2023-06-22T04:51:40;21.10;99.90
21592;DHT22;10958;50.892;3.992;2023-06-22T04:54:07;21.20;99.90
21592;DHT22;10958;50.892;3.992;2023-06-22T04:56:35;21.20;99.90
21592;DHT22;10958;50.892;3.992;2023-06-22T04:59:02;21.30;99.90
21592;DHT22;10958;50.892;3.992;2023-06-22T05:01:29;21.40;99.90
21592;DHT22;10958;50.892;3.992;2023-06-22T05:03:56;21.50;99.90
21592;DHT22;10958;50.892;3.992;2023-06-22T05:06:23;21.50;99.90
21592;DHT22;10958;50.892;3.992;2023-06-22T05:09:09;21.50;99.90
21592;DHT22;10958;50.892;3.992;2023-06-22T05:11:40;21.50;99.90
21592;DHT22;10958;50.892;3.992;2023-06-22T05:14:06;21.40;99.90
21592;DHT22;10958;50.892;3.992;2023-06-22T05:16:33;21.40;99.90
21592;DHT22;10958;50.892;3.992;2023-06-22T05:19:01;21.50;99.90
21592;DHT22;10958;50.892;3.992;2023-06-22T05:21:29;21.60;99.90
21592;DHT22;10958;50.892;3.992;2023-06-22T05:23:55;21.60;99.90
21592;DHT22;10958;50.892;3.992;2023-06-22T05:26:21;21.80;99.90
21592;DHT22;10958;50.892;3.992;2023-06-22T05:28:50;21.60;99.90
21592;DHT22;10958;50.892;3.992;2023-06-22T05:31:17;21.40;99.90
21592;DHT22;10958;50.892;3.992;2023-06-22T05:33:46;21.40;99.90
21592;DHT22;10958;50.892;3.992;2023-06-22T05:36:13;21.20;99.90
21592;DHT22;10958;50.892;3.992;2023-06-22T05:38:40;21.20;99.90
21592;DHT22;10958;50.892;3.992;2023-06-22T05:41:07;21.20;99.90
21592;DHT22;10958;50.892;3.992;2023-06-22T05:43:33;21.40;99.90
21592;DHT22;10958;50.892;3.992;2023-06-22T05:46:00;21.50;99.90
21592;DHT22;10958;50.892;3.992;2023-06-22T05:48:26;21.50;99.90
21592;DHT22;10958;50.892;3.992;2023-06-22T05:50:53;21.50;99.90
21592;DHT22;10958;50.892;3.992;2023-06-22T05:53:18;21.50;99.90
21592;DHT22;10958;50.892;3.992;2023-06-22T05:55:47;21.60;99.90
21592;DHT22;10958;50.892;3.992;2023-06-22T05:58:12;21.70;99.90
21592;DHT22;10958;50.892;3.992;2023-06-22T06:00:42;21.90;99.90
21592;DHT22;10958;50.892;3.992;2023-06-22T06:03:11;22.00;99.90
21592;DHT22;10958;50.892;3.992;2023-06-22T06:05:43;22.10;99.90
21592;DHT22;10958;50.892;3.992;2023-06-22T06:08:09;21.90;99.90
21592;DHT22;10958;50.892;3.992;2023-06-22T06:10:36;21.70;99.90
21592;DHT22;10958;50.892;3.992;2023-06-22T06:13:02;21.70;99.90
21592;DHT22;10958;50.892;3.992;2023-06-22T06:15:30;21.80;99.90
21592;DHT22;10958;50.892;3.992;2023-06-22T06:17:59;21.90;99.90
21592;DHT22;10958;50.892;3.992;2023-06-22T06:20:27;22.00;99.90
21592;DHT22;10958;50.892;3.992;2023-06-22T06:22:56;22.10;99.90
21592;DHT22;10958;50.892;3.992;2023-06-22T06:25:23;22.20;99.90
21592;DHT22;10958;50.892;3.992;2023-06-22T06:27:50;22.30;99.90
21592;DHT22;10958;50.892;3.992;2023-06-22T06:30:18;22.10;99.90
21592;DHT22;10958;50.892;3.992;2023-06-22T06:32:47;22.00;99.90
21592;DHT22;10958;50.892;3.992;2023-06-22T06:35:14;21.80;99.90
21592;DHT22;10958;50.892;3.992;2023-06-22T06:37:43;21.80;99.90
21592;DHT22;10958;50.892;3.992;2023-06-22T06:40:10;21.90;99.90
21592;DHT22;10958;50.892;3.992;2023-06-22T06:42:39;22.10;99.90
21592;DHT22;10958;50.892;3.992;2023-06-22T06:45:15;22.00;99.90
21592;DHT22;10958;50.892;3.992;2023-06-22T06:47:42;22.20;99.90
21592;DHT22;10958;50.892;3.992;2023-06-22T06:50:08;22.30;99.90
21592;DHT22;10958;50.892;3.992;2023-06-22T06:52:34;22.30;99.90
21592;DHT22;10958;50.892;3.992;2023-06-22T06:55:00;22.40;99.90
21592;DHT22;10958;50.892;3.992;2023-06-22T06:57:26;22.50;99.90
21592;DHT22;10958;50.892;3.992;2023-06-22T06:59:54;22.70;99.90
21592;DHT22;10958;50.892;3.992;2023-06-22T07:02:21;22.70;99.90
21592;DHT22;10958;50.892;3.992;2023-06-22T07:04:47;22.70;99.90
21592;DHT22;10958;50.892;3.992;2023-06-22T07:07:13;22.70;99.90
21592;DHT22;10958;50.892;3.992;2023-06-22T07:09:39;22.30;99.90
21592;DHT22;10958;50.892;3.992;2023-06-22T07:12:08;22.20;99.90
21592;DHT22;10958;50.892;3.992;2023-06-22T07:14:34;22.20;99.90
21592;DHT22;10958;50.892;3.992;2023-06-22T07:17:00;22.30;99.90
21592;DHT22;10958;50.892;3.992;2023-06-22T07:19:26;22.50;99.90
21592;DHT22;10958;50.892;3.992;2023-06-22T07:21:53;22.30;99.90
21592;DHT22;10958;50.892;3.992;2023-06-22T07:24:23;22.30;99.90
21592;DHT22;10958;50.892;3.992;2023-06-22T07:26:50;22.20;99.90
21592;DHT22;10958;50.892;3.992;2023-06-22T07:29:20;22.10;99.90
21592;DHT22;10958;50.892;3.992;2023-06-22T07:32:06;22.10;99.90
21592;DHT22;10958;50.892;3.992;2023-06-22T07:34:32;22.20;99.90
21592;DHT22;10958;50.892;3.992;2023-06-22T07:36:59;22.20;99.90
21592;DHT22;10958;50.892;3.992;2023-06-22T07:39:24;22.20;99.90
21592;DHT22;10958;50.892;3.992;2023-06-22T07:41:54;22.10;99.90
21592;DHT22;10958;50.892;3.992;2023-06-22T07:44:20;22.20;99.90
21592;DHT22;10958;50.892;3.992;2023-06-22T07:46:46;22.10;99.90
21592;DHT22;10958;50.892;3.992;2023-06-22T07:49:12;22.10;99.90
21592;DHT22;10958;50.892;3.992;2023-06-22T07:51:38;22.10;99.90
21592;DHT22;10958;50.892;3.992;2023-06-22T07:54:03;22.20;99.90
21592;DHT22;10958;50.892;3.992;2023-06-22T07:56:29;22.30;99.90
21592;DHT22;10958;50.892;3.992;2023-06-22T07:58:55;22.20;99.90
21592;DHT22;10958;50.892;3.992;2023-06-22T08:01:23;22.40;99.90
21592;DHT22;10958;50.892;3.992;2023-06-22T08:03:49;22.60;99.90
21592;DHT22;10958;50.892;3.992;2023-06-22T08:06:15;22.70;99.90
21592;DHT22;10958;50.892;3.992;2023-06-22T08:08:42;23.00;99.90
21592;DHT22;10958;50.892;3.992;2023-06-22T08:11:08;23.20;99.90
21592;DHT22;10958;50.892;3.992;2023-06-22T08:13:34;23.20;99.90
21592;DHT22;10958;50.892;3.992;2023-06-22T08:16:03;23.20;99.90
21592;DHT22;10958;50.892;3.992;2023-06-22T08:18:28;23.20;99.90
21592;DHT22;10958;50.892;3.992;2023-06-22T08:20:57;23.10;99.90
21592;DHT22;10958;50.892;3.992;2023-06-22T08:23:24;23.00;99.90
21592;DHT22;10958;50.892;3.992;2023-06-22T08:25:51;22.80;99.90
21592;DHT22;10958;50.892;3.992;2023-06-22T08:28:16;22.60;99.90
21592;DHT22;10958;50.892;3.992;2023-06-22T08:30:42;22.50;99.90
21592;DHT22;10958;50.892;3.992;2023-06-22T08:33:10;22.60;99.90
21592;DHT22;10958;50.892;3.992;2023-06-22T08:35:38;22.60;99.90
21592;DHT22;10958;50.892;3.992;2023-06-22T08:38:04;22.60;99.90
21592;DHT22;10958;50.892;3.992;2023-06-22T08:40:29;22.50;99.90
21592;DHT22;10958;50.892;3.992;2023-06-22T08:42:56;22.50;99.90
21592;DHT22;10958;50.892;3.992;2023-06-22T08:45:22;22.40;99.90
21592;DHT22;10958;50.892;3.992;2023-06-22T08:47:48;22.40;99.90
21592;DHT22;10958;50.892;3.992;2023-06-22T08:50:16;22.40;99.90
21592;DHT22;10958;50.892;3.992;2023-06-22T08:52:44;22.30;99.90
21592;DHT22;10958;50.892;3.992;2023-06-22T08:55:11;22.20;99.90
21592;DHT22;10958;50.892;3.992;2023-06-22T08:57:37;22.30;99.90
21592;DHT22;10958;50.892;3.992;2023-06-22T09:00:09;22.40;99.90
21592;DHT22;10958;50.892;3.992;2023-06-22T09:02:43;22.30;99.90
21592;DHT22;10958;50.892;3.992;2023-06-22T09:05:10;22.30;99.90
21592;DHT22;10958;50.892;3.992;2023-06-22T09:07:36;22.20;99.90
21592;DHT22;10958;50.892;3.992;2023-06-22T09:10:02;22.20;99.90
21592;DHT22;10958;50.892;3.992;2023-06-22T09:12:30;22.20;99.90
21592;DHT22;10958;50.892;3.992;2023-06-22T09:14:56;22.20;99.90
21592;DHT22;10958;50.892;3.992;2023-06-22T09:17:22;22.20;99.90
21592;DHT22;10958;50.892;3.992;2023-06-22T09:19:48;22.20;99.90
21592;DHT22;10958;50.892;3.992;2023-06-22T09:22:14;22.00;99.90
21592;DHT22;10958;50.892;3.992;2023-06-22T09:24:41;22.10;99.90
21592;DHT22;10958;50.892;3.992;2023-06-22T09:27:06;22.10;99.90
21592;DHT22;10958;50.892;3.992;2023-06-22T09:29:35;22.00;99.90
21592;DHT22;10958;50.892;3.992;2023-06-22T09:32:00;21.80;99.90
21592;DHT22;10958;50.892;3.992;2023-06-22T09:34:27;21.80;99.90
21592;DHT22;10958;50.892;3.992;2023-06-22T09:36:53;21.80;99.90
21592;DHT22;10958;50.892;3.992;2023-06-22T09:39:22;22.00;99.90
21592;DHT22;10958;50.892;3.992;2023-06-22T09:41:48;21.90;99.90
21592;DHT22;10958;50.892;3.992;2023-06-22T09:44:13;21.90;99.90
21592;DHT22;10958;50.892;3.992;2023-06-22T09:46:39;21.90;99.90
21592;DHT22;10958;50.892;3.992;2023-06-22T09:49:05;22.00;99.90
21592;DHT22;10958;50.892;3.992;2023-06-22T09:51:30;22.10;99.90
21592;DHT22;10958;50.892;3.992;2023-06-22T09:53:59;22.10;99.90
21592;DHT22;10958;50.892;3.992;2023-06-22T09:56:25;22.30;99.90
21592;DHT22;10958;50.892;3.992;2023-06-22T09:58:53;22.40;99.90
21592;DHT22;10958;50.892;3.992;2023-06-22T10:01:21;22.60;99.90
21592;DHT22;10958;50.892;3.992;2023-06-22T10:03:48;22.70;99.90
21592;DHT22;10958;50.892;3.992;2023-06-22T10:06:13;22.70;99.90
21592;DHT22;10958;50.892;3.992;2023-06-22T10:08:39;22.50;99.90
21592;DHT22;10958;50.892;3.992;2023-06-22T10:11:06;22.10;99.90
21592;DHT22;10958;50.892;3.992;2023-06-22T10:13:34;22.30;99.90
21592;DHT22;10958;50.892;3.992;2023-06-22T10:16:03;22.40;99.90
21592;DHT22;10958;50.892;3.992;2023-06-22T10:18:28;22.40;99.90
21592;DHT22;10958;50.892;3.992;2023-06-22T10:20:57;22.40;99.90
21592;DHT22;10958;50.892;3.992;2023-06-22T10:23:23;22.60;99.90
21592;DHT22;10958;50.892;3.992;2023-06-22T10:25:51;22.50;99.90
21592;DHT22;10958;50.892;3.992;2023-06-22T10:28:17;22.60;99.90
21592;DHT22;10958;50.892;3.992;2023-06-22T10:30:43;22.70;99.90
21592;DHT22;10958;50.892;3.992;2023-06-22T10:33:10;22.60;99.90
21592;DHT22;10958;50.892;3.992;2023-06-22T10:35:36;21.70;99.90
21592;DHT22;10958;50.892;3.992;2023-06-22T10:38:06;21.50;99.90
21592;DHT22;10958;50.892;3.992;2023-06-22T10:40:32;21.30;99.90
21592;DHT22;10958;50.892;3.992;2023-06-22T10:42:57;21.20;99.90
21592;DHT22;10958;50.892;3.992;2023-06-22T10:45:26;21.20;99.90
21592;DHT22;10958;50.892;3.992;2023-06-22T10:47:52;21.10;99.90
21592;DHT22;10958;50.892;3.992;2023-06-22T10:50:20;20.90;99.90
21592;DHT22;10958;50.892;3.992;2023-06-22T10:52:46;20.90;99.90
21592;DHT22;10958;50.892;3.992;2023-06-22T10:55:11;20.70;99.90
21592;DHT22;10958;50.892;3.992;2023-06-22T10:57:40;20.70;99.90
21592;DHT22;10958;50.892;3.992;2023-06-22T11:00:09;20.50;99.90
21592;DHT22;10958;50.892;3.992;2023-06-22T11:02:34;20.50;99.90
21592;DHT22;10958;50.892;3.992;2023-06-22T11:05:00;20.60;99.90
21592;DHT22;10958;50.892;3.992;2023-06-22T11:07:27;20.70;99.90
21592;DHT22;10958;50.892;3.992;2023-06-22T11:09:56;20.80;99.90
21592;DHT22;10958;50.892;3.992;2023-06-22T11:12:22;20.90;99.90
21592;DHT22;10958;50.892;3.992;2023-06-22T11:14:50;20.90;99.90
21592;DHT22;10958;50.892;3.992;2023-06-22T11:17:17;20.90;99.90
21592;DHT22;10958;50.892;3.992;2023-06-22T11:19:44;20.70;99.90
21592;DHT22;10958;50.892;3.992;2023-06-22T11:22:12;20.70;99.90
21592;DHT22;10958;50.892;3.992;2023-06-22T11:24:40;20.70;99.90
21592;DHT22;10958;50.892;3.992;2023-06-22T11:27:09;20.90;99.90
21592;DHT22;10958;50.892;3.992;2023-06-22T11:29:38;20.90;99.90
21592;DHT22;10958;50.892;3.992;2023-06-22T11:32:06;20.90;99.90
21592;DHT22;10958;50.892;3.992;2023-06-22T11:34:32;20.80;99.90
21592;DHT22;10958;50.892;3.992;2023-06-22T11:36:58;20.90;99.90
21592;DHT22;10958;50.892;3.992;2023-06-22T11:39:24;21.00;99.90
21592;DHT22;10958;50.892;3.992;2023-06-22T11:41:49;21.00;99.90
21592;DHT22;10958;50.892;3.992;2023-06-22T11:44:15;21.00;99.90
21592;DHT22;10958;50.892;3.992;2023-06-22T11:46:41;21.00;99.90
21592;DHT22;10958;50.892;3.992;2023-06-22T11:49:07;20.90;99.90
21592;DHT22;10958;50.892;3.992;2023-06-22T11:51:35;21.00;99.90
21592;DHT22;10958;50.892;3.992;2023-06-22T11:54:01;20.90;99.90
21592;DHT22;10958;50.892;3.992;2023-06-22T11:56:28;20.90;99.90
21592;DHT22;10958;50.892;3.992;2023-06-22T11:58:57;20.80;99.90
21592;DHT22;10958;50.892;3.992;2023-06-22T12:01:23;20.80;99.90
21592;DHT22;10958;50.892;3.992;2023-06-22T12:03:49;20.80;99.90
21592;DHT22;10958;50.892;3.992;2023-06-22T12:06:15;20.60;99.90
21592;DHT22;10958;50.892;3.992;2023-06-22T12:08:41;20.70;99.90
21592;DHT22;10958;50.892;3.992;2023-06-22T12:11:07;20.80;99.90
21592;DHT22;10958;50.892;3.992;2023-06-22T12:13:34;20.70;99.90
21592;DHT22;10958;50.892;3.992;2023-06-22T12:16:07;20.50;99.90
21592;DHT22;10958;50.892;3.992;2023-06-22T12:18:33;20.40;99.90
21592;DHT22;10958;50.892;3.992;2023-06-22T12:20:59;20.30;99.90
21592;DHT22;10958;50.892;3.992;2023-06-22T12:23:24;20.40;99.90
21592;DHT22;10958;50.892;3.992;2023-06-22T12:25:50;20.40;99.90
21592;DHT22;10958;50.892;3.992;2023-06-22T12:28:16;20.50;99.90
21592;DHT22;10958;50.892;3.992;2023-06-22T12:30:42;20.40;99.90
21592;DHT22;10958;50.892;3.992;2023-06-22T12:33:08;20.50;99.90
21592;DHT22;10958;50.892;3.992;2023-06-22T12:35:35;20.40;99.90
21592;DHT22;10958;50.892;3.992;2023-06-22T12:38:03;20.40;99.90
21592;DHT22;10958;50.892;3.992;2023-06-22T12:40:31;20.40;99.90
21592;DHT22;10958;50.892;3.992;2023-06-22T12:42:58;20.30;99.90
21592;DHT22;10958;50.892;3.992;2023-06-22T12:45:24;20.10;99.90
21592;DHT22;10958;50.892;3.992;2023-06-22T12:47:54;20.20;99.90
21592;DHT22;10958;50.892;3.992;2023-06-22T12:50:21;20.30;99.90
21592;DHT22;10958;50.892;3.992;2023-06-22T12:52:49;20.20;99.90
21592;DHT22;10958;50.892;3.992;2023-06-22T12:55:14;20.10;99.90
21592;DHT22;10958;50.892;3.992;2023-06-22T12:57:40;20.10;99.90
21592;DHT22;10958;50.892;3.992;2023-06-22T13:00:08;19.90;99.90
21592;DHT22;10958;50.892;3.992;2023-06-22T13:02:37;19.70;99.90
21592;DHT22;10958;50.892;3.992;2023-06-22T13:05:05;19.60;99.90
21592;DHT22;10958;50.892;3.992;2023-06-22T13:07:51;19.60;99.90
21592;DHT22;10958;50.892;3.992;2023-06-22T13:10:17;19.60;99.90
21592;DHT22;10958;50.892;3.992;2023-06-22T13:14:57;19.80;99.90
21592;DHT22;10958;50.892;3.992;2023-06-22T13:17:23;19.80;99.90
21592;DHT22;10958;50.892;3.992;2023-06-22T13:19:49;19.80;99.90
21592;DHT22;10958;50.892;3.992;2023-06-22T13:22:36;19.70;99.90
21592;DHT22;10958;50.892;3.992;2023-06-22T13:25:09;19.90;99.90
21592;DHT22;10958;50.892;3.992;2023-06-22T13:27:41;19.80;99.90
21592;DHT22;10958;50.892;3.992;2023-06-22T13:30:08;19.80;99.90
21592;DHT22;10958;50.892;3.992;2023-06-22T13:32:34;19.90;99.90
21592;DHT22;10958;50.892;3.992;2023-06-22T13:35:00;19.80;99.90
21592;DHT22;10958;50.892;3.992;2023-06-22T13:37:26;19.80;99.90
21592;DHT22;10958;50.892;3.992;2023-06-22T13:39:52;19.90;99.90
21592;DHT22;10958;50.892;3.992;2023-06-22T13:42:18;19.90;99.90
21592;DHT22;10958;50.892;3.992;2023-06-22T13:44:46;19.80;99.90
21592;DHT22;10958;50.892;3.992;2023-06-22T13:47:12;19.90;99.90
21592;DHT22;10958;50.892;3.992;2023-06-22T13:49:38;19.80;99.90
21592;DHT22;10958;50.892;3.992;2023-06-22T13:52:04;19.60;99.90
21592;DHT22;10958;50.892;3.992;2023-06-22T13:54:32;19.60;99.90
21592;DHT22;10958;50.892;3.992;2023-06-22T13:56:58;19.60;99.90
21592;DHT22;10958;50.892;3.992;2023-06-22T13:59:24;19.50;99.90
21592;DHT22;10958;50.892;3.992;2023-06-22T14:01:54;19.60;99.90
21592;DHT22;10958;50.892;3.992;2023-06-22T14:04:21;19.80;99.90
21592;DHT22;10958;50.892;3.992;2023-06-22T14:06:47;19.70;99.90
21592;DHT22;10958;50.892;3.992;2023-06-22T14:09:12;19.70;99.90
21592;DHT22;10958;50.892;3.992;2023-06-22T14:11:38;19.80;99.90
21592;DHT22;10958;50.892;3.992;2023-06-22T14:14:04;19.80;99.90
21592;DHT22;10958;50.892;3.992;2023-06-22T14:16:30;19.90;99.90
21592;DHT22;10958;50.892;3.992;2023-06-22T14:18:55;20.00;99.90
21592;DHT22;10958;50.892;3.992;2023-06-22T14:21:21;20.00;99.90
21592;DHT22;10958;50.892;3.992;2023-06-22T14:23:47;20.20;99.90
21592;DHT22;10958;50.892;3.992;2023-06-22T14:26:15;20.20;99.90
21592;DHT22;10958;50.892;3.992;2023-06-22T14:28:48;20.20;99.90
21592;DHT22;10958;50.892;3.992;2023-06-22T14:31:16;20.10;99.90
21592;DHT22;10958;50.892;3.992;2023-06-22T14:33:49;20.20;99.90
21592;DHT22;10958;50.892;3.992;2023-06-22T14:36:16;20.20;99.90
21592;DHT22;10958;50.892;3.992;2023-06-22T14:38:42;20.20;99.90
21592;DHT22;10958;50.892;3.992;2023-06-22T14:41:08;20.10;99.90
21592;DHT22;10958;50.892;3.992;2023-06-22T14:43:33;20.20;99.90
21592;DHT22;10958;50.892;3.992;2023-06-22T14:45:59;20.30;99.90
21592;DHT22;10958;50.892;3.992;2023-06-22T14:48:26;20.40;99.90
21592;DHT22;10958;50.892;3.992;2023-06-22T14:50:51;20.20;99.90
21592;DHT22;10958;50.892;3.992;2023-06-22T14:53:19;20.20;99.90
21592;DHT22;10958;50.892;3.992;2023-06-22T14:55:47;20.30;99.90
21592;DHT22;10958;50.892;3.992;2023-06-22T14:58:13;20.40;99.90
21592;DHT22;10958;50.892;3.992;2023-06-22T15:00:39;20.40;99.90
21592;DHT22;10958;50.892;3.992;2023-06-22T15:03:07;20.50;99.90
21592;DHT22;10958;50.892;3.992;2023-06-22T15:05:36;20.60;99.90
21592;DHT22;10958;50.892;3.992;2023-06-22T15:08:02;20.70;99.90
21592;DHT22;10958;50.892;3.992;2023-06-22T15:10:30;20.70;99.90
21592;DHT22;10958;50.892;3.992;2023-06-22T15:12:56;20.70;99.90
21592;DHT22;10958;50.892;3.992;2023-06-22T15:15:21;20.60;99.90
21592;DHT22;10958;50.892;3.992;2023-06-22T15:17:47;20.60;99.90
21592;DHT22;10958;50.892;3.992;2023-06-22T15:20:13;20.70;99.90
21592;DHT22;10958;50.892;3.992;2023-06-22T15:22:39;20.70;99.90
21592;DHT22;10958;50.892;3.992;2023-06-22T15:25:04;20.70;99.90
21592;DHT22;10958;50.892;3.992;2023-06-22T15:27:30;20.70;99.90
21592;DHT22;10958;50.892;3.992;2023-06-22T15:30:01;20.70;99.90
21592;DHT22;10958;50.892;3.992;2023-06-22T15:32:31;20.80;99.90
21592;DHT22;10958;50.892;3.992;2023-06-22T15:34:57;20.90;99.90
21592;DHT22;10958;50.892;3.992;2023-06-22T15:37:23;21.00;99.90